sensor_id;sensor_type;location;lat;lon;timestamp;P1;durP1;ratioP1;P2;durP2;ratioP2
11531;SDS011;5822;51.000;5.874;2024-03-02T00:01:44;18.60;;;17.50;;
11531;SDS011;5822;51.000;5.874;2024-03-02T00:04:09;18.50;;;17.40;;
11531;SDS011;5822;51.000;5.874;2024-03-02T00:06:36;17.77;;;16.77;;
11531;SDS011;5822;51.000;5.874;2024-03-02T00:09:05;17.52;;;16.52;;
11531;SDS011;5822;51.000;5.874;2024-03-02T00:11:37;17.90;;;16.83;;
11531;SDS011;5822;51.000;5.874;2024-03-02T00:14:03;18.08;;;17.08;;
11531;SDS011;5822;51.000;5.874;2024-03-02T00:16:30;18.33;;;17.23;;
11531;SDS011;5822;51.000;5.874;2024-03-02T00:19:00;18.60;;;17.50;;
11531;SDS011;5822;51.000;5.874;2024-03-02T00:21:27;17.90;;;16.90;;
11531;SDS011;5822;51.000;5.874;2024-03-02T00:23:55;17.98;;;16.98;;
11531;SDS011;5822;51.000;5.874;2024-03-02T00:26:21;18.20;;;17.13;;
11531;SDS011;5822;51.000;5.874;2024-03-02T00:28:46;17.93;;;16.93;;
11531;SDS011;5822;51.000;5.874;2024-03-02T00:31:13;17.98;;;16.98;;
11531;SDS011;5822;51.000;5.874;2024-03-02T00:33:46;18.23;;;17.23;;
11531;SDS011;5822;51.000;5.874;2024-03-02T00:36:14;18.27;;;17.27;;
11531;SDS011;5822;51.000;5.874;2024-03-02T00:38:44;18.45;;;17.35;;
11531;SDS011;5822;51.000;5.874;2024-03-02T00:41:16;18.27;;;17.27;;
11531;SDS011;5822;51.000;5.874;2024-03-02T00:44:06;18.40;;;17.40;;
11531;SDS011;5822;51.000;5.874;2024-03-02T00:46:38;18.53;;;17.50;;
11531;SDS011;5822;51.000;5.874;2024-03-02T00:49:11;18.10;;;17.10;;
11531;SDS011;5822;51.000;5.874;2024-03-02T00:51:47;18.57;;;17.47;;
11531;SDS011;5822;51.000;5.874;2024-03-02T00:54:14;18.30;;;17.20;;
11531;SDS011;5822;51.000;5.874;2024-03-02T00:56:41;17.85;;;16.75;;
11531;SDS011;5822;51.000;5.874;2024-03-02T00:59:07;18.25;;;17.15;;
11531;SDS011;5822;51.000;5.874;2024-03-02T01:01:33;18.55;;;17.45;;
11531;SDS011;5822;51.000;5.874;2024-03-02T01:03:59;18.60;;;17.50;;
11531;SDS011;5822;51.000;5.874;2024-03-02T01:06:25;18.53;;;17.43;;
11531;SDS011;5822;51.000;5.874;2024-03-02T01:08:51;18.70;;;17.60;;
11531;SDS011;5822;51.000;5.874;2024-03-02T01:11:16;18.73;;;17.63;;
11531;SDS011;5822;51.000;5.874;2024-03-02T01:13:48;19.00;;;17.85;;
11531;SDS011;5822;51.000;5.874;2024-03-02T01:16:14;19.57;;;18.30;;
11531;SDS011;5822;51.000;5.874;2024-03-02T01:18:43;19.90;;;18.70;;
11531;SDS011;5822;51.000;5.874;2024-03-02T01:21:09;20.80;;;19.50;;
11531;SDS011;5822;51.000;5.874;2024-03-02T01:23:34;20.60;;;19.40;;
11531;SDS011;5822;51.000;5.874;2024-03-02T01:26:00;20.33;;;19.13;;
11531;SDS011;5822;51.000;5.874;2024-03-02T01:28:26;19.37;;;18.27;;
11531;SDS011;5822;51.000;5.874;2024-03-02T01:30:51;19.63;;;18.42;;
11531;SDS011;5822;51.000;5.874;2024-03-02T01:33:17;19.10;;;18.00;;
11531;SDS011;5822;51.000;5.874;2024-03-02T01:35:44;18.17;;;17.17;;
11531;SDS011;5822;51.000;5.874;2024-03-02T01:38:09;18.50;;;17.40;;
11531;SDS011;5822;51.000;5.874;2024-03-02T01:40:35;17.98;;;16.98;;
11531;SDS011;5822;51.000;5.874;2024-03-02T01:43:02;18.20;;;17.20;;
11531;SDS011;5822;51.000;5.874;2024-03-02T01:45:29;18.02;;;17.02;;
11531;SDS011;5822;51.000;5.874;2024-03-02T01:47:55;17.60;;;16.60;;
11531;SDS011;5822;51.000;5.874;2024-03-02T01:50:24;17.33;;;16.40;;
11531;SDS011;5822;51.000;5.874;2024-03-02T01:52:57;17.08;;;16.10;;
11531;SDS011;5822;51.000;5.874;2024-03-02T01:55:23;17.30;;;16.40;;
11531;SDS011;5822;51.000;5.874;2024-03-02T01:57:50;17.10;;;16.20;;
11531;SDS011;5822;51.000;5.874;2024-03-02T02:00:17;17.30;;;16.30;;
11531;SDS011;5822;51.000;5.874;2024-03-02T02:02:43;17.70;;;16.70;;
11531;SDS011;5822;51.000;5.874;2024-03-02T02:05:09;17.77;;;16.77;;
11531;SDS011;5822;51.000;5.874;2024-03-02T02:07:36;17.80;;;16.80;;
11531;SDS011;5822;51.000;5.874;2024-03-02T02:10:01;17.60;;;16.60;;
11531;SDS011;5822;51.000;5.874;2024-03-02T02:12:27;17.80;;;16.80;;
11531;SDS011;5822;51.000;5.874;2024-03-02T02:14:53;17.80;;;16.80;;
11531;SDS011;5822;51.000;5.874;2024-03-02T02:17:19;17.77;;;16.77;;
11531;SDS011;5822;51.000;5.874;2024-03-02T02:19:45;17.90;;;16.80;;
11531;SDS011;5822;51.000;5.874;2024-03-02T02:22:11;17.70;;;16.70;;
11531;SDS011;5822;51.000;5.874;2024-03-02T02:24:42;17.80;;;16.80;;
11531;SDS011;5822;51.000;5.874;2024-03-02T02:27:08;17.40;;;16.40;;
11531;SDS011;5822;51.000;5.874;2024-03-02T02:29:35;18.10;;;17.10;;
11531;SDS011;5822;51.000;5.874;2024-03-02T02:32:01;18.13;;;17.13;;
11531;SDS011;5822;51.000;5.874;2024-03-02T02:34:27;18.30;;;17.30;;
11531;SDS011;5822;51.000;5.874;2024-03-02T02:36:53;18.10;;;17.10;;
11531;SDS011;5822;51.000;5.874;2024-03-02T02:39:20;17.83;;;16.83;;
11531;SDS011;5822;51.000;5.874;2024-03-02T02:41:47;17.60;;;16.60;;
11531;SDS011;5822;51.000;5.874;2024-03-02T02:44:13;17.50;;;16.50;;
11531;SDS011;5822;51.000;5.874;2024-03-02T02:46:39;17.47;;;16.53;;
11531;SDS011;5822;51.000;5.874;2024-03-02T02:49:05;17.30;;;16.40;;
11531;SDS011;5822;51.000;5.874;2024-03-02T02:51:31;17.60;;;16.70;;
11531;SDS011;5822;51.000;5.874;2024-03-02T02:53:57;17.80;;;16.80;;
11531;SDS011;5822;51.000;5.874;2024-03-02T02:56:23;17.87;;;16.87;;
11531;SDS011;5822;51.000;5.874;2024-03-02T02:58:49;17.93;;;16.93;;
11531;SDS011;5822;51.000;5.874;2024-03-02T03:01:15;17.75;;;16.83;;
11531;SDS011;5822;51.000;5.874;2024-03-02T03:03:44;17.67;;;16.67;;
11531;SDS011;5822;51.000;5.874;2024-03-02T03:06:10;17.20;;;16.30;;
11531;SDS011;5822;51.000;5.874;2024-03-02T03:08:39;17.50;;;16.60;;
11531;SDS011;5822;51.000;5.874;2024-03-02T03:11:05;17.17;;;16.27;;
11531;SDS011;5822;51.000;5.874;2024-03-02T03:13:31;17.20;;;16.30;;
11531;SDS011;5822;51.000;5.874;2024-03-02T03:15:57;16.90;;;16.00;;
11531;SDS011;5822;51.000;5.874;2024-03-02T03:18:23;17.60;;;16.70;;
11531;SDS011;5822;51.000;5.874;2024-03-02T03:20:49;17.50;;;16.60;;
11531;SDS011;5822;51.000;5.874;2024-03-02T03:23:15;17.45;;;16.55;;
11531;SDS011;5822;51.000;5.874;2024-03-02T03:25:42;17.50;;;16.60;;
11531;SDS011;5822;51.000;5.874;2024-03-02T03:28:08;17.20;;;16.30;;
11531;SDS011;5822;51.000;5.874;2024-03-02T03:30:36;16.90;;;16.00;;
11531;SDS011;5822;51.000;5.874;2024-03-02T03:33:03;16.90;;;16.00;;
11531;SDS011;5822;51.000;5.874;2024-03-02T03:35:31;17.10;;;16.20;;
11531;SDS011;5822;51.000;5.874;2024-03-02T03:37:56;17.20;;;16.30;;
11531;SDS011;5822;51.000;5.874;2024-03-02T03:40:22;17.10;;;16.20;;
11531;SDS011;5822;51.000;5.874;2024-03-02T03:42:48;17.43;;;16.50;;
11531;SDS011;5822;51.000;5.874;2024-03-02T03:45:15;17.55;;;16.55;;
11531;SDS011;5822;51.000;5.874;2024-03-02T03:47:41;17.48;;;16.58;;
11531;SDS011;5822;51.000;5.874;2024-03-02T03:50:07;17.20;;;16.30;;
11531;SDS011;5822;51.000;5.874;2024-03-02T03:52:33;17.23;;;16.33;;
11531;SDS011;5822;51.000;5.874;2024-03-02T03:54:59;17.20;;;16.30;;
11531;SDS011;5822;51.000;5.874;2024-03-02T03:57:25;16.98;;;16.08;;
11531;SDS011;5822;51.000;5.874;2024-03-02T03:59:54;17.10;;;16.20;;
11531;SDS011;5822;51.000;5.874;2024-03-02T04:02:20;16.90;;;16.00;;
11531;SDS011;5822;51.000;5.874;2024-03-02T04:04:46;17.10;;;16.20;;
11531;SDS011;5822;51.000;5.874;2024-03-02T04:07:12;17.40;;;16.50;;
11531;SDS011;5822;51.000;5.874;2024-03-02T04:09:37;17.25;;;16.35;;
11531;SDS011;5822;51.000;5.874;2024-03-02T04:12:03;17.30;;;16.40;;
11531;SDS011;5822;51.000;5.874;2024-03-02T04:14:29;17.33;;;16.42;;
11531;SDS011;5822;51.000;5.874;2024-03-02T04:16:55;17.38;;;16.48;;
11531;SDS011;5822;51.000;5.874;2024-03-02T04:19:23;17.10;;;16.20;;
11531;SDS011;5822;51.000;5.874;2024-03-02T04:21:49;17.07;;;16.17;;
11531;SDS011;5822;51.000;5.874;2024-03-02T04:24:14;17.00;;;16.10;;
11531;SDS011;5822;51.000;5.874;2024-03-02T04:26:40;17.30;;;16.40;;
11531;SDS011;5822;51.000;5.874;2024-03-02T04:29:05;17.40;;;16.50;;
11531;SDS011;5822;51.000;5.874;2024-03-02T04:31:31;17.90;;;16.90;;
11531;SDS011;5822;51.000;5.874;2024-03-02T04:33:59;17.67;;;16.67;;
11531;SDS011;5822;51.000;5.874;2024-03-02T04:36:28;17.65;;;16.70;;
11531;SDS011;5822;51.000;5.874;2024-03-02T04:38:53;17.70;;;16.70;;
11531;SDS011;5822;51.000;5.874;2024-03-02T04:41:19;17.42;;;16.52;;
11531;SDS011;5822;51.000;5.874;2024-03-02T04:43:45;17.20;;;16.30;;
11531;SDS011;5822;51.000;5.874;2024-03-02T04:46:10;17.00;;;16.10;;
11531;SDS011;5822;51.000;5.874;2024-03-02T04:48:36;17.50;;;16.50;;
11531;SDS011;5822;51.000;5.874;2024-03-02T04:51:02;16.98;;;16.08;;
11531;SDS011;5822;51.000;5.874;2024-03-02T04:53:28;17.80;;;16.80;;
11531;SDS011;5822;51.000;5.874;2024-03-02T04:55:53;17.80;;;16.80;;
11531;SDS011;5822;51.000;5.874;2024-03-02T04:58:19;17.40;;;16.50;;
11531;SDS011;5822;51.000;5.874;2024-03-02T05:00:45;17.52;;;16.52;;
11531;SDS011;5822;51.000;5.874;2024-03-02T05:03:11;17.58;;;16.58;;
11531;SDS011;5822;51.000;5.874;2024-03-02T05:05:38;17.60;;;16.60;;
11531;SDS011;5822;51.000;5.874;2024-03-02T05:08:07;17.20;;;16.30;;
11531;SDS011;5822;51.000;5.874;2024-03-02T05:10:32;17.00;;;16.10;;
11531;SDS011;5822;51.000;5.874;2024-03-02T05:12:58;17.35;;;16.35;;
11531;SDS011;5822;51.000;5.874;2024-03-02T05:15:24;17.20;;;16.30;;
11531;SDS011;5822;51.000;5.874;2024-03-02T05:17:50;17.83;;;16.83;;
11531;SDS011;5822;51.000;5.874;2024-03-02T05:20:16;17.70;;;16.70;;
11531;SDS011;5822;51.000;5.874;2024-03-02T05:22:42;17.70;;;16.70;;
11531;SDS011;5822;51.000;5.874;2024-03-02T05:25:07;17.80;;;16.80;;
11531;SDS011;5822;51.000;5.874;2024-03-02T05:27:34;18.10;;;17.10;;
11531;SDS011;5822;51.000;5.874;2024-03-02T05:30:00;17.70;;;16.70;;
11531;SDS011;5822;51.000;5.874;2024-03-02T05:32:26;17.67;;;16.67;;
11531;SDS011;5822;51.000;5.874;2024-03-02T05:34:52;17.90;;;16.90;;
11531;SDS011;5822;51.000;5.874;2024-03-02T05:37:18;17.75;;;16.75;;
11531;SDS011;5822;51.000;5.874;2024-03-02T05:39:44;17.50;;;16.50;;
11531;SDS011;5822;51.000;5.874;2024-03-02T05:42:10;18.03;;;17.03;;
11531;SDS011;5822;51.000;5.874;2024-03-02T05:44:36;18.10;;;17.10;;
11531;SDS011;5822;51.000;5.874;2024-03-02T05:47:02;18.00;;;17.00;;
11531;SDS011;5822;51.000;5.874;2024-03-02T05:49:28;17.60;;;16.60;;
11531;SDS011;5822;51.000;5.874;2024-03-02T05:51:54;17.33;;;16.40;;
11531;SDS011;5822;51.000;5.874;2024-03-02T05:54:20;17.20;;;16.20;;
11531;SDS011;5822;51.000;5.874;2024-03-02T05:56:46;17.10;;;16.20;;
11531;SDS011;5822;51.000;5.874;2024-03-02T05:59:11;17.20;;;16.30;;
11531;SDS011;5822;51.000;5.874;2024-03-02T06:01:44;16.80;;;15.90;;
11531;SDS011;5822;51.000;5.874;2024-03-02T06:04:15;16.80;;;15.90;;
11531;SDS011;5822;51.000;5.874;2024-03-02T06:06:41;17.40;;;16.50;;
11531;SDS011;5822;51.000;5.874;2024-03-02T06:09:07;17.08;;;16.17;;
11531;SDS011;5822;51.000;5.874;2024-03-02T06:11:36;16.98;;;16.08;;
11531;SDS011;5822;51.000;5.874;2024-03-02T06:14:02;16.80;;;15.90;;
11531;SDS011;5822;51.000;5.874;2024-03-02T06:16:28;17.10;;;16.20;;
11531;SDS011;5822;51.000;5.874;2024-03-02T06:18:55;16.80;;;15.90;;
11531;SDS011;5822;51.000;5.874;2024-03-02T06:21:25;16.70;;;15.80;;
11531;SDS011;5822;51.000;5.874;2024-03-02T06:23:51;16.73;;;15.83;;
11531;SDS011;5822;51.000;5.874;2024-03-02T06:26:17;16.70;;;15.80;;
11531;SDS011;5822;51.000;5.874;2024-03-02T06:28:43;16.67;;;15.77;;
11531;SDS011;5822;51.000;5.874;2024-03-02T06:31:12;16.95;;;15.95;;
11531;SDS011;5822;51.000;5.874;2024-03-02T06:33:38;17.08;;;16.08;;
11531;SDS011;5822;51.000;5.874;2024-03-02T06:36:05;17.60;;;16.60;;
11531;SDS011;5822;51.000;5.874;2024-03-02T06:38:33;17.40;;;16.40;;
11531;SDS011;5822;51.000;5.874;2024-03-02T06:40:59;17.20;;;16.20;;
11531;SDS011;5822;51.000;5.874;2024-03-02T06:43:25;17.00;;;16.00;;
11531;SDS011;5822;51.000;5.874;2024-03-02T06:45:51;16.95;;;15.95;;
11531;SDS011;5822;51.000;5.874;2024-03-02T06:48:17;16.95;;;15.95;;
11531;SDS011;5822;51.000;5.874;2024-03-02T06:50:48;16.63;;;15.73;;
11531;SDS011;5822;51.000;5.874;2024-03-02T06:53:14;17.13;;;16.13;;
11531;SDS011;5822;51.000;5.874;2024-03-02T06:55:44;17.20;;;16.20;;
11531;SDS011;5822;51.000;5.874;2024-03-02T06:58:13;17.40;;;16.40;;
11531;SDS011;5822;51.000;5.874;2024-03-02T07:00:44;17.40;;;16.40;;
11531;SDS011;5822;51.000;5.874;2024-03-02T07:03:10;17.47;;;16.47;;
11531;SDS011;5822;51.000;5.874;2024-03-02T07:05:36;18.20;;;17.10;;
11531;SDS011;5822;51.000;5.874;2024-03-02T07:08:01;30.30;;;28.90;;
11531;SDS011;5822;51.000;5.874;2024-03-02T07:10:28;38.08;;;36.38;;
11531;SDS011;5822;51.000;5.874;2024-03-02T07:12:57;24.87;;;23.67;;
11531;SDS011;5822;51.000;5.874;2024-03-02T07:15:22;22.70;;;21.60;;
11531;SDS011;5822;51.000;5.874;2024-03-02T07:18:06;22.80;;;21.67;;
11531;SDS011;5822;51.000;5.874;2024-03-02T07:20:32;23.03;;;21.90;;
11531;SDS011;5822;51.000;5.874;2024-03-02T07:22:58;24.90;;;23.70;;
11531;SDS011;5822;51.000;5.874;2024-03-02T07:25:23;24.07;;;22.87;;
11531;SDS011;5822;51.000;5.874;2024-03-02T07:27:49;23.33;;;22.13;;
11531;SDS011;5822;51.000;5.874;2024-03-02T07:30:15;22.42;;;21.23;;
11531;SDS011;5822;51.000;5.874;2024-03-02T07:32:41;21.77;;;20.67;;
11531;SDS011;5822;51.000;5.874;2024-03-02T07:35:10;20.95;;;19.85;;
11531;SDS011;5822;51.000;5.874;2024-03-02T07:37:39;20.13;;;19.02;;
11531;SDS011;5822;51.000;5.874;2024-03-02T07:40:06;20.65;;;19.55;;
11531;SDS011;5822;51.000;5.874;2024-03-02T07:42:43;20.73;;;19.63;;
11531;SDS011;5822;51.000;5.874;2024-03-02T07:45:10;20.13;;;19.02;;
11531;SDS011;5822;51.000;5.874;2024-03-02T07:47:36;20.35;;;19.25;;
11531;SDS011;5822;51.000;5.874;2024-03-02T07:50:02;19.87;;;18.77;;
11531;SDS011;5822;51.000;5.874;2024-03-02T07:52:31;20.25;;;19.15;;
11531;SDS011;5822;51.000;5.874;2024-03-02T07:54:57;20.08;;;18.98;;
11531;SDS011;5822;51.000;5.874;2024-03-02T07:57:22;19.80;;;18.70;;
11531;SDS011;5822;51.000;5.874;2024-03-02T07:59:48;19.63;;;18.52;;
11531;SDS011;5822;51.000;5.874;2024-03-02T08:02:14;19.75;;;18.65;;
11531;SDS011;5822;51.000;5.874;2024-03-02T08:04:40;19.77;;;18.67;;
11531;SDS011;5822;51.000;5.874;2024-03-02T08:07:06;19.90;;;18.80;;
11531;SDS011;5822;51.000;5.874;2024-03-02T08:09:32;20.10;;;19.00;;
11531;SDS011;5822;51.000;5.874;2024-03-02T08:11:57;19.85;;;18.75;;
11531;SDS011;5822;51.000;5.874;2024-03-02T08:14:23;19.83;;;18.73;;
11531;SDS011;5822;51.000;5.874;2024-03-02T08:16:49;19.88;;;18.77;;
11531;SDS011;5822;51.000;5.874;2024-03-02T08:19:15;20.00;;;18.90;;
11531;SDS011;5822;51.000;5.874;2024-03-02T08:21:42;19.92;;;18.73;;
11531;SDS011;5822;51.000;5.874;2024-03-02T08:24:08;19.77;;;18.67;;
11531;SDS011;5822;51.000;5.874;2024-03-02T08:26:34;19.83;;;18.63;;
11531;SDS011;5822;51.000;5.874;2024-03-02T08:29:00;20.60;;;19.50;;
11531;SDS011;5822;51.000;5.874;2024-03-02T08:31:29;20.95;;;19.75;;
11531;SDS011;5822;51.000;5.874;2024-03-02T08:33:55;20.30;;;19.10;;
11531;SDS011;5822;51.000;5.874;2024-03-02T08:36:22;20.45;;;19.35;;
11531;SDS011;5822;51.000;5.874;2024-03-02T08:38:51;20.80;;;19.60;;
11531;SDS011;5822;51.000;5.874;2024-03-02T08:41:17;20.30;;;19.20;;
11531;SDS011;5822;51.000;5.874;2024-03-02T08:43:45;20.67;;;19.55;;
11531;SDS011;5822;51.000;5.874;2024-03-02T08:46:11;20.50;;;19.40;;
11531;SDS011;5822;51.000;5.874;2024-03-02T08:48:37;20.20;;;19.10;;
11531;SDS011;5822;51.000;5.874;2024-03-02T08:51:02;20.30;;;19.20;;
11531;SDS011;5822;51.000;5.874;2024-03-02T08:53:31;20.10;;;19.00;;
11531;SDS011;5822;51.000;5.874;2024-03-02T08:55:56;19.70;;;18.60;;
11531;SDS011;5822;51.000;5.874;2024-03-02T08:58:22;20.20;;;19.10;;
11531;SDS011;5822;51.000;5.874;2024-03-02T09:00:48;19.90;;;18.80;;
11531;SDS011;5822;51.000;5.874;2024-03-02T09:03:13;21.05;;;19.75;;
11531;SDS011;5822;51.000;5.874;2024-03-02T09:05:42;19.60;;;18.50;;
11531;SDS011;5822;51.000;5.874;2024-03-02T09:08:08;19.70;;;18.50;;
11531;SDS011;5822;51.000;5.874;2024-03-02T09:10:34;19.80;;;18.70;;
11531;SDS011;5822;51.000;5.874;2024-03-02T09:12:59;20.00;;;18.80;;
11531;SDS011;5822;51.000;5.874;2024-03-02T09:15:26;20.13;;;18.92;;
11531;SDS011;5822;51.000;5.874;2024-03-02T09:17:52;19.38;;;18.27;;
11531;SDS011;5822;51.000;5.874;2024-03-02T09:20:17;20.05;;;18.95;;
11531;SDS011;5822;51.000;5.874;2024-03-02T09:22:43;19.98;;;18.85;;
11531;SDS011;5822;51.000;5.874;2024-03-02T09:25:09;20.10;;;19.00;;
11531;SDS011;5822;51.000;5.874;2024-03-02T09:27:38;20.10;;;19.00;;
11531;SDS011;5822;51.000;5.874;2024-03-02T09:30:10;20.25;;;19.05;;
11531;SDS011;5822;51.000;5.874;2024-03-02T09:32:36;20.30;;;19.10;;
11531;SDS011;5822;51.000;5.874;2024-03-02T09:35:02;19.88;;;18.77;;
11531;SDS011;5822;51.000;5.874;2024-03-02T09:37:28;20.50;;;19.30;;
11531;SDS011;5822;51.000;5.874;2024-03-02T09:39:54;19.97;;;18.87;;
11531;SDS011;5822;51.000;5.874;2024-03-02T09:42:20;19.63;;;18.53;;
11531;SDS011;5822;51.000;5.874;2024-03-02T09:44:46;19.92;;;18.80;;
11531;SDS011;5822;51.000;5.874;2024-03-02T09:47:13;19.98;;;18.88;;
11531;SDS011;5822;51.000;5.874;2024-03-02T09:49:38;19.58;;;18.48;;
11531;SDS011;5822;51.000;5.874;2024-03-02T09:52:05;20.00;;;18.90;;
11531;SDS011;5822;51.000;5.874;2024-03-02T09:54:32;19.50;;;18.40;;
11531;SDS011;5822;51.000;5.874;2024-03-02T09:56:58;19.40;;;18.30;;
11531;SDS011;5822;51.000;5.874;2024-03-02T09:59:23;20.45;;;19.25;;
11531;SDS011;5822;51.000;5.874;2024-03-02T10:02:00;20.15;;;18.95;;
11531;SDS011;5822;51.000;5.874;2024-03-02T10:04:28;20.07;;;18.97;;
11531;SDS011;5822;51.000;5.874;2024-03-02T10:07:14;20.88;;;19.77;;
11531;SDS011;5822;51.000;5.874;2024-03-02T10:09:41;19.70;;;18.60;;
11531;SDS011;5822;51.000;5.874;2024-03-02T10:12:08;20.85;;;19.65;;
11531;SDS011;5822;51.000;5.874;2024-03-02T10:14:36;20.50;;;19.40;;
11531;SDS011;5822;51.000;5.874;2024-03-02T10:17:06;20.33;;;19.20;;
11531;SDS011;5822;51.000;5.874;2024-03-02T10:19:36;20.00;;;18.80;;
11531;SDS011;5822;51.000;5.874;2024-03-02T10:22:02;19.75;;;18.60;;
11531;SDS011;5822;51.000;5.874;2024-03-02T10:24:36;19.70;;;18.60;;
11531;SDS011;5822;51.000;5.874;2024-03-02T10:27:07;20.65;;;19.45;;
11531;SDS011;5822;51.000;5.874;2024-03-02T10:29:36;20.23;;;19.13;;
11531;SDS011;5822;51.000;5.874;2024-03-02T10:32:04;19.70;;;18.60;;
11531;SDS011;5822;51.000;5.874;2024-03-02T10:34:31;19.77;;;18.67;;
11531;SDS011;5822;51.000;5.874;2024-03-02T10:36:57;23.30;;;22.00;;
11531;SDS011;5822;51.000;5.874;2024-03-02T10:39:23;19.40;;;18.30;;
11531;SDS011;5822;51.000;5.874;2024-03-02T10:41:49;19.80;;;18.60;;
11531;SDS011;5822;51.000;5.874;2024-03-02T10:44:18;20.00;;;18.90;;
11531;SDS011;5822;51.000;5.874;2024-03-02T10:46:45;19.40;;;18.30;;
11531;SDS011;5822;51.000;5.874;2024-03-02T10:49:12;19.88;;;18.77;;
11531;SDS011;5822;51.000;5.874;2024-03-02T10:51:38;19.40;;;18.30;;
11531;SDS011;5822;51.000;5.874;2024-03-02T10:54:04;19.90;;;18.80;;
11531;SDS011;5822;51.000;5.874;2024-03-02T10:56:30;19.60;;;18.50;;
11531;SDS011;5822;51.000;5.874;2024-03-02T11:01:35;18.90;;;17.90;;
11531;SDS011;5822;51.000;5.874;2024-03-02T11:04:04;19.33;;;18.23;;
11531;SDS011;5822;51.000;5.874;2024-03-02T11:06:33;23.20;;;22.00;;
11531;SDS011;5822;51.000;5.874;2024-03-02T11:09:04;22.08;;;20.98;;
11531;SDS011;5822;51.000;5.874;2024-03-02T11:11:36;18.90;;;17.90;;
11531;SDS011;5822;51.000;5.874;2024-03-02T11:14:07;19.23;;;18.23;;
11531;SDS011;5822;51.000;5.874;2024-03-02T11:16:36;19.00;;;18.00;;
11531;SDS011;5822;51.000;5.874;2024-03-02T11:19:13;19.23;;;18.23;;
11531;SDS011;5822;51.000;5.874;2024-03-02T11:21:41;19.40;;;18.33;;
11531;SDS011;5822;51.000;5.874;2024-03-02T11:27:03;19.15;;;18.15;;
11531;SDS011;5822;51.000;5.874;2024-03-02T11:32:44;19.13;;;18.13;;
11531;SDS011;5822;51.000;5.874;2024-03-02T11:34:50;21.65;;;20.55;;
11531;SDS011;5822;51.000;5.874;2024-03-02T11:37:20;21.63;;;20.50;;
11531;SDS011;5822;51.000;5.874;2024-03-02T11:39:46;19.42;;;18.40;;
11531;SDS011;5822;51.000;5.874;2024-03-02T11:42:14;19.90;;;18.80;;
11531;SDS011;5822;51.000;5.874;2024-03-02T11:44:47;20.05;;;18.95;;
11531;SDS011;5822;51.000;5.874;2024-03-02T11:47:16;19.08;;;17.98;;
11531;SDS011;5822;51.000;5.874;2024-03-02T11:49:51;19.00;;;17.95;;
11531;SDS011;5822;51.000;5.874;2024-03-02T11:52:19;19.47;;;18.37;;
11531;SDS011;5822;51.000;5.874;2024-03-02T11:54:47;18.45;;;17.45;;
11531;SDS011;5822;51.000;5.874;2024-03-02T11:57:20;18.23;;;17.23;;
11531;SDS011;5822;51.000;5.874;2024-03-02T11:59:50;19.33;;;18.33;;
11531;SDS011;5822;51.000;5.874;2024-03-02T12:02:19;19.65;;;18.55;;
11531;SDS011;5822;51.000;5.874;2024-03-02T12:04:47;20.05;;;18.95;;
11531;SDS011;5822;51.000;5.874;2024-03-02T12:07:20;19.55;;;18.45;;
11531;SDS011;5822;51.000;5.874;2024-03-02T12:09:47;19.30;;;18.20;;
11531;SDS011;5822;51.000;5.874;2024-03-02T12:12:13;19.10;;;18.00;;
11531;SDS011;5822;51.000;5.874;2024-03-02T12:14:49;19.30;;;18.20;;
11531;SDS011;5822;51.000;5.874;2024-03-02T12:17:16;19.70;;;18.60;;
11531;SDS011;5822;51.000;5.874;2024-03-02T12:19:44;20.90;;;19.80;;
11531;SDS011;5822;51.000;5.874;2024-03-02T12:22:11;19.50;;;18.40;;
11531;SDS011;5822;51.000;5.874;2024-03-02T12:24:37;19.40;;;18.40;;
11531;SDS011;5822;51.000;5.874;2024-03-02T12:27:03;19.67;;;18.57;;
11531;SDS011;5822;51.000;5.874;2024-03-02T12:29:30;23.60;;;22.30;;
11531;SDS011;5822;51.000;5.874;2024-03-02T12:31:56;19.73;;;18.63;;
11531;SDS011;5822;51.000;5.874;2024-03-02T12:34:22;19.43;;;18.33;;
11531;SDS011;5822;51.000;5.874;2024-03-02T12:36:48;19.58;;;18.48;;
11531;SDS011;5822;51.000;5.874;2024-03-02T12:39:17;19.58;;;18.58;;
11531;SDS011;5822;51.000;5.874;2024-03-02T12:41:48;19.30;;;18.20;;
11531;SDS011;5822;51.000;5.874;2024-03-02T12:44:15;20.50;;;19.37;;
11531;SDS011;5822;51.000;5.874;2024-03-02T12:46:43;19.55;;;18.52;;
11531;SDS011;5822;51.000;5.874;2024-03-02T12:49:09;19.70;;;18.70;;
11531;SDS011;5822;51.000;5.874;2024-03-02T12:51:41;22.52;;;21.33;;
11531;SDS011;5822;51.000;5.874;2024-03-02T12:54:07;21.60;;;20.48;;
11531;SDS011;5822;51.000;5.874;2024-03-02T12:56:35;20.88;;;19.77;;
11531;SDS011;5822;51.000;5.874;2024-03-02T12:59:01;21.23;;;20.13;;
11531;SDS011;5822;51.000;5.874;2024-03-02T13:01:26;22.45;;;21.35;;
11531;SDS011;5822;51.000;5.874;2024-03-02T13:03:52;21.33;;;20.23;;
11531;SDS011;5822;51.000;5.874;2024-03-02T13:06:25;19.70;;;18.60;;
11531;SDS011;5822;51.000;5.874;2024-03-02T13:08:54;19.67;;;18.58;;
11531;SDS011;5822;51.000;5.874;2024-03-02T13:11:21;19.70;;;18.60;;
11531;SDS011;5822;51.000;5.874;2024-03-02T13:13:50;19.75;;;18.65;;
11531;SDS011;5822;51.000;5.874;2024-03-02T13:16:19;19.40;;;18.33;;
11531;SDS011;5822;51.000;5.874;2024-03-02T13:18:45;20.10;;;19.00;;
11531;SDS011;5822;51.000;5.874;2024-03-02T13:21:14;19.83;;;18.73;;
11531;SDS011;5822;51.000;5.874;2024-03-02T13:23:39;19.93;;;18.83;;
11531;SDS011;5822;51.000;5.874;2024-03-02T13:26:05;19.50;;;18.40;;
11531;SDS011;5822;51.000;5.874;2024-03-02T13:28:32;21.57;;;20.43;;
11531;SDS011;5822;51.000;5.874;2024-03-02T13:31:04;22.67;;;21.48;;
11531;SDS011;5822;51.000;5.874;2024-03-02T13:33:30;20.20;;;19.10;;
11531;SDS011;5822;51.000;5.874;2024-03-02T13:35:57;20.10;;;19.00;;
11531;SDS011;5822;51.000;5.874;2024-03-02T13:38:27;19.70;;;18.60;;
11531;SDS011;5822;51.000;5.874;2024-03-02T13:40:53;19.30;;;18.30;;
11531;SDS011;5822;51.000;5.874;2024-03-02T13:43:19;19.58;;;18.50;;
11531;SDS011;5822;51.000;5.874;2024-03-02T13:45:45;19.48;;;18.38;;
11531;SDS011;5822;51.000;5.874;2024-03-02T13:48:10;18.58;;;17.58;;
11531;SDS011;5822;51.000;5.874;2024-03-02T13:50:36;19.13;;;18.02;;
11531;SDS011;5822;51.000;5.874;2024-03-02T13:53:02;19.50;;;18.40;;
11531;SDS011;5822;51.000;5.874;2024-03-02T13:55:28;19.17;;;18.08;;
11531;SDS011;5822;51.000;5.874;2024-03-02T13:57:53;19.27;;;18.17;;
11531;SDS011;5822;51.000;5.874;2024-03-02T14:00:19;19.55;;;18.45;;
11531;SDS011;5822;51.000;5.874;2024-03-02T14:02:48;19.70;;;18.63;;
11531;SDS011;5822;51.000;5.874;2024-03-02T14:05:15;23.58;;;22.38;;
11531;SDS011;5822;51.000;5.874;2024-03-02T14:07:41;19.10;;;18.10;;
11531;SDS011;5822;51.000;5.874;2024-03-02T14:10:08;19.00;;;18.00;;
11531;SDS011;5822;51.000;5.874;2024-03-02T14:12:34;18.80;;;17.80;;
11531;SDS011;5822;51.000;5.874;2024-03-02T14:15:01;18.98;;;17.98;;
11531;SDS011;5822;51.000;5.874;2024-03-02T14:17:29;18.93;;;17.93;;
11531;SDS011;5822;51.000;5.874;2024-03-02T14:19:57;21.88;;;20.77;;
11531;SDS011;5822;51.000;5.874;2024-03-02T14:22:25;22.25;;;21.05;;
11531;SDS011;5822;51.000;5.874;2024-03-02T14:24:51;22.00;;;20.80;;
11531;SDS011;5822;51.000;5.874;2024-03-02T14:27:17;20.20;;;19.10;;
11531;SDS011;5822;51.000;5.874;2024-03-02T14:29:42;19.80;;;18.70;;
11531;SDS011;5822;51.000;5.874;2024-03-02T14:32:08;19.92;;;18.83;;
11531;SDS011;5822;51.000;5.874;2024-03-02T14:34:34;21.13;;;20.02;;
11531;SDS011;5822;51.000;5.874;2024-03-02T14:37:00;19.50;;;18.40;;
11531;SDS011;5822;51.000;5.874;2024-03-02T14:39:26;19.00;;;18.00;;
11531;SDS011;5822;51.000;5.874;2024-03-02T14:41:52;18.73;;;17.73;;